createdAt,value
2023-04-15T00:00:50.413Z,57.5880
2023-04-15T00:01:51.118Z,57.7274
2023-04-15T00:02:52.215Z,57.7971
2023-04-15T00:03:53.401Z,57.8263
2023-04-15T00:04:53.374Z,57.8327
2023-04-15T00:05:54.310Z,57.8650
2023-04-15T00:06:55.022Z,57.9558
2023-04-15T00:07:55.460Z,58.0266
2023-04-15T00:08:56.122Z,58.0540
2023-04-15T00:09:56.625Z,58.0730
2023-04-15T00:10:57.217Z,58.0927
2023-04-15T00:11:57.851Z,58.1045
2023-04-15T00:12:58.424Z,58.1188
2023-04-15T00:13:59.129Z,58.1332
2023-04-15T00:14:59.833Z,58.1455
2023-04-15T00:16:00.489Z,58.1557
2023-04-15T00:17:01.574Z,58.1605
2023-04-15T00:18:02.402Z,58.1693
2023-04-15T00:19:03.297Z,58.1822
2023-04-15T00:20:04.213Z,58.1975
2023-04-15T00:21:04.689Z,58.2112
2023-04-15T00:22:05.365Z,58.2248
2023-04-15T00:23:06.103Z,58.2346
2023-04-15T00:24:06.603Z,58.2473
2023-04-15T00:25:07.451Z,58.2572
2023-04-15T00:26:08.432Z,58.2759
2023-04-15T00:27:09.080Z,58.2876
2023-04-15T00:28:09.979Z,58.2930
2023-04-15T00:29:10.859Z,58.2979
2023-04-15T00:30:11.408Z,58.2942
2023-04-15T00:31:12.724Z,58.2905
2023-04-15T00:32:13.379Z,58.2803
2023-04-15T00:33:14.113Z,58.2680
2023-04-15T00:34:14.723Z,58.2573
2023-04-15T00:35:15.206Z,58.2456
2023-04-15T00:36:16.003Z,58.2384
2023-04-15T00:37:16.497Z,58.2323
2023-04-15T00:38:17.114Z,58.2290
2023-04-15T00:39:17.894Z,58.2341
2023-04-15T00:40:18.521Z,58.2381
2023-04-15T00:41:19.313Z,58.2434
2023-04-15T00:42:19.997Z,58.2535
2023-04-15T00:43:20.583Z,58.2592
2023-04-15T00:44:21.197Z,58.2659
2023-04-15T00:45:21.691Z,58.2730
2023-04-15T00:46:22.840Z,58.2767
2023-04-15T00:47:23.613Z,58.2813
2023-04-15T00:48:24.412Z,58.2872
2023-04-15T00:49:25.170Z,58.2959
2023-04-15T00:50:25.842Z,58.2965
2023-04-15T00:51:26.523Z,58.2926
2023-04-15T00:52:27.291Z,58.2914
2023-04-15T00:53:27.885Z,58.2896
2023-04-15T00:54:28.658Z,58.2863
2023-04-15T00:55:29.291Z,58.2821
2023-04-15T00:56:29.870Z,58.2783
2023-04-15T00:57:30.749Z,58.2781
2023-04-15T00:58:31.348Z,58.2807
2023-04-15T00:59:32.126Z,58.2805
2023-04-15T01:00:32.656Z,58.2724
2023-04-15T01:01:33.288Z,58.2595
2023-04-15T01:02:33.748Z,58.2397
2023-04-15T01:03:35.364Z,58.2248
2023-04-15T01:04:35.348Z,58.2136
2023-04-15T01:05:36.398Z,58.2060
2023-04-15T01:06:37.019Z,58.2033
2023-04-15T01:07:37.959Z,58.2125
2023-04-15T01:08:39.037Z,58.2251
2023-04-15T01:09:39.639Z,58.2264
2023-04-15T01:10:40.621Z,58.2269
2023-04-15T01:11:41.230Z,58.2445
2023-04-15T01:12:41.952Z,58.2953
2023-04-15T01:13:42.726Z,58.3438
2023-04-15T01:14:43.626Z,58.3710
2023-04-15T01:15:44.328Z,58.3725
2023-04-15T01:16:45.510Z,58.3506
2023-04-15T01:17:46.167Z,58.3256
2023-04-15T01:18:46.188Z,58.3112
2023-04-15T01:19:46.323Z,58.2878
2023-04-15T01:20:47.099Z,58.2565
2023-04-15T01:21:47.772Z,58.2084
2023-04-15T01:22:48.271Z,58.1560
2023-04-15T01:23:48.916Z,58.1003
2023-04-15T01:24:49.670Z,58.0416
2023-04-15T01:25:50.174Z,57.9938
2023-04-15T01:26:51.055Z,57.9532
2023-04-15T01:27:52.036Z,57.9154
2023-04-15T01:28:52.639Z,57.8770
2023-04-15T01:29:53.375Z,57.8489
2023-04-15T01:30:53.997Z,57.8236
2023-04-15T01:31:55.066Z,57.8022
2023-04-15T01:32:55.590Z,57.7858
2023-04-15T01:33:56.258Z,57.7686
2023-04-15T01:34:57.370Z,57.7590
2023-04-15T01:35:58.188Z,57.7583
2023-04-15T01:36:58.824Z,57.7599
2023-04-15T01:37:59.663Z,57.7593
2023-04-15T01:39:00.347Z,57.7520
2023-04-15T01:40:00.542Z,57.7368
2023-04-15T01:41:01.261Z,57.7196
2023-04-15T01:42:01.930Z,57.7037
2023-04-15T01:43:02.762Z,57.6924
2023-04-15T01:44:03.528Z,57.6833
2023-04-15T01:45:04.079Z,57.6762
2023-04-15T01:46:04.805Z,57.6722
2023-04-15T01:47:06.128Z,57.6651
2023-04-15T01:48:07.192Z,57.6590
2023-04-15T01:49:08.486Z,57.6497
2023-04-15T01:50:09.114Z,57.6427
2023-04-15T01:51:09.814Z,57.6406
2023-04-15T01:52:10.532Z,57.6347
2023-04-15T01:53:11.423Z,57.6352
2023-04-15T01:54:11.899Z,57.6349
2023-04-15T01:55:12.544Z,57.6369
2023-04-15T01:56:14.717Z,57.6354
2023-04-15T01:57:13.651Z,57.6423
2023-04-15T01:58:14.504Z,57.6514
2023-04-15T01:59:14.970Z,57.6648
2023-04-15T02:00:15.668Z,57.6780
2023-04-15T02:01:16.773Z,57.6822
2023-04-15T02:02:17.941Z,57.6807
2023-04-15T02:03:18.479Z,57.6798
2023-04-15T02:04:19.449Z,57.6807
2023-04-15T02:05:20.135Z,57.6870
2023-04-15T02:06:20.799Z,57.6964
2023-04-15T02:07:21.288Z,57.7119
2023-04-15T02:08:21.952Z,57.7214
2023-04-15T02:09:23.049Z,57.7231
2023-04-15T02:10:23.517Z,57.7164
2023-04-15T02:11:24.127Z,57.7161
2023-04-15T02:12:24.546Z,57.7379
2023-04-15T02:13:25.165Z,57.7681
2023-04-15T02:14:26.087Z,57.7842
2023-04-15T02:15:26.602Z,57.7892
2023-04-15T02:16:27.596Z,57.7894
2023-04-15T02:17:28.721Z,57.7865
2023-04-15T02:18:29.599Z,57.7852
2023-04-15T02:19:30.452Z,57.7809
2023-04-15T02:20:31.178Z,57.7824
2023-04-15T02:21:31.819Z,57.7940
2023-04-15T02:22:32.765Z,57.8259
2023-04-15T02:23:33.208Z,57.8662
2023-04-15T02:24:33.937Z,57.9190
2023-04-15T02:25:34.559Z,57.9959
2023-04-15T02:26:34.870Z,58.0862
2023-04-15T02:27:35.585Z,58.1270
2023-04-15T02:28:36.091Z,58.1595
2023-04-15T02:29:36.868Z,58.1908
2023-04-15T02:30:37.679Z,58.2142
2023-04-15T02:31:38.206Z,58.2362
2023-04-15T02:32:39.220Z,58.2657
2023-04-15T02:33:40.069Z,58.3035
2023-04-15T02:34:40.600Z,58.3954
2023-04-15T02:35:41.498Z,58.5452
2023-04-15T02:36:41.887Z,58.6587
2023-04-15T02:37:42.672Z,58.7155
2023-04-15T02:38:43.339Z,58.7419
2023-04-15T02:39:43.865Z,58.7683
2023-04-15T02:40:44.669Z,58.8151
2023-04-15T02:41:45.398Z,58.9124
2023-04-15T02:42:45.948Z,59.0504
2023-04-15T02:43:46.624Z,59.1269
2023-04-15T02:44:47.131Z,59.1509
2023-04-15T02:45:47.867Z,59.1483
2023-04-15T02:46:48.912Z,59.1378
2023-04-15T02:47:49.519Z,59.1337
2023-04-15T02:48:50.185Z,59.1368
2023-04-15T02:49:50.977Z,59.1395
2023-04-15T02:50:52.007Z,59.1395
2023-04-15T02:51:51.863Z,59.1414
2023-04-15T02:52:52.334Z,59.1538
2023-04-15T02:53:52.981Z,59.1601
2023-04-15T02:54:53.762Z,59.1604
2023-04-15T02:55:54.467Z,59.1618
2023-04-15T02:56:55.278Z,59.1578
2023-04-15T02:57:56.256Z,59.1488
2023-04-15T02:58:56.703Z,59.1349
2023-04-15T02:59:57.670Z,59.1291
2023-04-15T03:00:58.289Z,59.1556
2023-04-15T03:01:59.419Z,59.2120
2023-04-15T03:02:59.633Z,59.2467
2023-04-15T03:04:00.938Z,59.2687
2023-04-15T03:05:00.991Z,59.2934
2023-04-15T03:06:01.519Z,59.3133
2023-04-15T03:07:02.046Z,59.3322
2023-04-15T03:08:03.397Z,59.3641
2023-04-15T03:10:03.656Z,59.3536
2023-04-15T03:11:04.163Z,59.3532
2023-04-15T03:12:05.081Z,59.3572
2023-04-15T03:13:05.434Z,59.3708
2023-04-15T03:14:06.182Z,59.4150
2023-04-15T03:15:06.642Z,59.4865
2023-04-15T03:16:07.677Z,59.5462
2023-04-15T03:17:08.435Z,59.6041
2023-04-15T03:18:09.139Z,59.6675
2023-04-15T03:19:10.438Z,59.7108
2023-04-15T03:20:11.405Z,59.7413
2023-04-15T03:21:11.934Z,59.7570
2023-04-15T03:22:12.566Z,59.7596
2023-04-15T03:23:13.198Z,59.7522
2023-04-15T03:24:13.673Z,59.7565
2023-04-15T03:25:14.401Z,59.7693
2023-04-15T03:26:15.182Z,59.7845
2023-04-15T03:27:15.603Z,59.8018
2023-04-15T03:28:16.360Z,59.8223
2023-04-15T03:29:16.737Z,59.8303
2023-04-15T03:30:17.463Z,59.8305
2023-04-15T03:31:18.151Z,59.8211
2023-04-15T03:32:18.989Z,59.8075
2023-04-15T03:33:19.926Z,59.7935
2023-04-15T03:34:20.608Z,59.7820
2023-04-15T03:35:21.210Z,59.7688
2023-04-15T03:36:21.760Z,59.7522
2023-04-15T03:37:22.320Z,59.7321
2023-04-15T03:38:22.818Z,59.7088
2023-04-15T03:39:24.062Z,59.6924
2023-04-15T03:40:24.565Z,59.6753
2023-04-15T03:41:25.243Z,59.6524
2023-04-15T03:42:25.915Z,59.6252
2023-04-15T03:43:26.922Z,59.6035
2023-04-15T03:44:27.633Z,59.5854
2023-04-15T03:45:28.088Z,59.5705
2023-04-15T03:46:29.244Z,59.5655
2023-04-15T03:47:30.018Z,59.5789
2023-04-15T03:48:30.580Z,59.6077
2023-04-15T03:49:31.828Z,59.6283
2023-04-15T03:50:32.397Z,59.6254
2023-04-15T03:51:33.042Z,59.6235
2023-04-15T03:52:33.722Z,59.6162
2023-04-15T03:53:34.473Z,59.6072
2023-04-15T03:54:35.040Z,59.5947
2023-04-15T03:55:35.552Z,59.5821
2023-04-15T03:56:35.992Z,59.5786
2023-04-15T03:57:36.640Z,59.6037
2023-04-15T03:58:37.479Z,59.6501
2023-04-15T03:59:38.554Z,59.7018
2023-04-15T04:00:39.163Z,59.7512
2023-04-15T04:01:39.848Z,59.7869
2023-04-15T04:02:40.227Z,59.8040
2023-04-15T04:03:41.035Z,59.8103
2023-04-15T04:04:41.546Z,59.8083
2023-04-15T04:05:42.288Z,59.8007
2023-04-15T04:06:43.044Z,59.8011
2023-04-15T04:07:44.018Z,59.8131
2023-04-15T04:08:44.544Z,59.8181
2023-04-15T04:09:47.154Z,59.8196
2023-04-15T04:10:46.793Z,59.8164
2023-04-15T04:11:47.389Z,59.8200
2023-04-15T04:12:48.051Z,59.8340
2023-04-15T04:13:48.489Z,59.8502
2023-04-15T04:14:49.152Z,59.8582
2023-04-15T04:15:49.941Z,59.8663
2023-04-15T04:16:50.080Z,59.8842
2023-04-15T04:17:51.105Z,59.9004
2023-04-15T04:18:51.608Z,59.9166
2023-04-15T04:19:52.307Z,59.9239
2023-04-15T04:20:53.031Z,59.9337
2023-04-15T04:21:53.528Z,59.9403
2023-04-15T04:22:54.189Z,59.9487
2023-04-15T04:23:54.866Z,59.9576
2023-04-15T04:24:55.254Z,59.9724
2023-04-15T04:25:55.882Z,59.9868
2023-04-15T04:26:56.527Z,59.9941
2023-04-15T04:27:57.064Z,59.9987
2023-04-15T04:28:57.719Z,60.0042
2023-04-15T04:29:58.173Z,60.0059
2023-04-15T04:30:58.665Z,60.0077
2023-04-15T04:31:59.650Z,60.0080
2023-04-15T04:33:00.505Z,60.0120
2023-04-15T04:34:01.104Z,60.0136
2023-04-15T04:35:01.555Z,60.0333
2023-04-15T04:36:02.378Z,60.0577
2023-04-15T04:37:02.977Z,60.0837
2023-04-15T04:38:03.518Z,60.1427
2023-04-15T04:39:04.483Z,60.2471
2023-04-15T04:40:05.178Z,60.3443
2023-04-15T04:41:05.674Z,60.3966
2023-04-15T04:42:06.249Z,60.4180
2023-04-15T04:43:06.835Z,60.4338
2023-04-15T04:44:07.441Z,60.4703
2023-04-15T04:45:08.222Z,60.5976
2023-04-15T04:47:09.554Z,60.7622
2023-04-15T04:48:10.421Z,60.8085
2023-04-15T04:49:11.397Z,60.8702
2023-04-15T04:50:12.085Z,60.9916
2023-04-15T04:51:12.783Z,61.0399
2023-04-15T04:52:13.350Z,61.0402
2023-04-15T04:53:14.036Z,61.0182
2023-04-15T04:54:14.871Z,60.9893
2023-04-15T04:55:15.800Z,60.9557
2023-04-15T04:56:16.383Z,60.9221
2023-04-15T04:57:16.850Z,60.8902
2023-04-15T04:58:17.530Z,60.8610
2023-04-15T04:59:19.918Z,60.8323
2023-04-15T05:00:20.469Z,60.8089
2023-04-15T05:01:21.277Z,60.7846
2023-04-15T05:02:21.837Z,60.7637
2023-04-15T05:03:22.071Z,60.7427
2023-04-15T05:04:22.037Z,60.7231
2023-04-15T05:05:22.487Z,60.7014
2023-04-15T05:06:23.315Z,60.6810
2023-04-15T05:07:23.995Z,60.6600
2023-04-15T05:08:24.548Z,60.6415
2023-04-15T05:09:25.788Z,60.6205
2023-04-15T05:10:26.436Z,60.6032
2023-04-15T05:11:26.884Z,60.5951
2023-04-15T05:12:27.720Z,60.6110
2023-04-15T05:13:28.126Z,60.6213
2023-04-15T05:14:29.217Z,60.6152
2023-04-15T05:15:29.875Z,60.6000
2023-04-15T05:16:30.529Z,60.5772
2023-04-15T05:17:31.475Z,60.5504
2023-04-15T05:18:32.145Z,60.5185
2023-04-15T05:19:33.198Z,60.5024
2023-04-15T05:20:33.874Z,60.5316
2023-04-15T05:21:34.437Z,60.5616
2023-04-15T05:22:34.922Z,60.5740
2023-04-15T05:23:35.819Z,60.5680
2023-04-15T05:24:36.286Z,60.5491
2023-04-15T05:25:36.418Z,60.5205
2023-04-15T05:26:37.042Z,60.4935
2023-04-15T05:27:37.647Z,60.4693
2023-04-15T05:28:38.517Z,60.4511
2023-04-15T05:29:39.307Z,60.4609
2023-04-15T05:30:39.844Z,60.5103
2023-04-15T05:31:40.740Z,60.5586
2023-04-15T05:32:41.839Z,60.5987
2023-04-15T05:33:42.425Z,60.6248
2023-04-15T05:34:43.267Z,60.6365
2023-04-15T05:35:43.736Z,60.6426
2023-04-15T05:36:44.352Z,60.6439
2023-04-15T05:37:45.077Z,60.6294
2023-04-15T05:38:45.543Z,60.6097
2023-04-15T05:39:46.910Z,60.6334
2023-04-15T05:40:46.603Z,60.7227
2023-04-15T05:41:47.295Z,60.7775
2023-04-15T05:42:47.990Z,60.8006
2023-04-15T05:43:48.436Z,60.7946
2023-04-15T05:44:49.293Z,60.7703
2023-04-15T05:45:50.209Z,60.7671
2023-04-15T05:46:50.759Z,60.7742
2023-04-15T05:47:51.616Z,60.7740
2023-04-15T05:48:53.396Z,60.7651
2023-04-15T05:49:53.361Z,60.7515
2023-04-15T05:50:54.099Z,60.7371
2023-04-15T05:51:54.714Z,60.7204
2023-04-15T05:52:55.412Z,60.6917
2023-04-15T05:53:56.184Z,60.6792
2023-04-15T05:54:56.745Z,60.6805
2023-04-15T05:55:57.487Z,60.6775
2023-04-15T05:56:58.400Z,60.6706
2023-04-15T05:57:58.953Z,60.6840
2023-04-15T05:58:59.800Z,60.7490
2023-04-15T06:00:00.567Z,60.8019
2023-04-15T06:01:01.085Z,60.8334
2023-04-15T06:02:01.852Z,60.8548
2023-04-15T06:03:03.077Z,60.8584
2023-04-15T06:04:03.688Z,60.8538
2023-04-15T06:05:03.792Z,60.8395
2023-04-15T06:06:04.413Z,60.8280
2023-04-15T06:07:05.148Z,60.8246
2023-04-15T06:08:05.842Z,60.8103
2023-04-15T06:09:06.019Z,60.7912
2023-04-15T06:10:06.854Z,60.7551
2023-04-15T06:11:07.335Z,60.6949
2023-04-15T06:12:08.176Z,60.6171
2023-04-15T06:13:08.808Z,60.5454
2023-04-15T06:14:09.373Z,60.4561
2023-04-15T06:15:10.204Z,60.3799
2023-04-15T06:16:11.509Z,60.3315
2023-04-15T06:17:12.392Z,60.3292
2023-04-15T06:18:13.357Z,60.3641
2023-04-15T06:19:15.142Z,60.4014
2023-04-15T06:20:14.482Z,60.4446
2023-04-15T06:21:15.487Z,60.4610
2023-04-15T06:22:16.017Z,60.4622
2023-04-15T06:23:16.870Z,60.4540
2023-04-15T06:24:17.560Z,60.4370
2023-04-15T06:25:18.201Z,60.4113
2023-04-15T06:26:18.911Z,60.3830
2023-04-15T06:27:19.435Z,60.3712
2023-04-15T06:28:19.971Z,60.3452
2023-04-15T06:29:20.907Z,60.3156
2023-04-15T06:30:23.496Z,60.2589
2023-04-15T06:31:22.671Z,60.1796
2023-04-15T06:32:23.730Z,60.0781
2023-04-15T06:33:24.578Z,59.9623
2023-04-15T06:34:25.778Z,59.8437
2023-04-15T06:35:26.815Z,59.7203
2023-04-15T06:36:27.616Z,59.6114
2023-04-15T06:37:28.395Z,59.5086
2023-04-15T06:38:29.460Z,59.4183
2023-04-15T06:39:29.953Z,59.3464
2023-04-15T06:40:30.827Z,59.2872
2023-04-15T06:41:31.440Z,59.2433
2023-04-15T06:42:32.155Z,59.2179
2023-04-15T06:43:32.773Z,59.2050
2023-04-15T06:44:34.029Z,59.2174
2023-04-15T06:45:33.678Z,59.2574
2023-04-15T06:46:34.657Z,59.2491
2023-04-15T06:47:35.465Z,59.2338
2023-04-15T06:48:36.143Z,59.2107
2023-04-15T06:49:36.727Z,59.1850
2023-04-15T06:50:37.443Z,59.1622
2023-04-15T06:51:37.922Z,59.1556
2023-04-15T06:52:38.834Z,59.1414
2023-04-15T06:53:39.579Z,59.1286
2023-04-15T06:54:40.146Z,59.0981
2023-04-15T06:55:41.049Z,59.0574
2023-04-15T06:56:41.873Z,58.9994
2023-04-15T06:57:42.481Z,58.9202
2023-04-15T06:58:43.279Z,58.8502
2023-04-15T06:59:44.335Z,58.8022
2023-04-15T07:00:44.948Z,58.7535
2023-04-15T07:01:46.009Z,58.7106
2023-04-15T07:02:46.121Z,58.6628
2023-04-15T07:03:46.966Z,58.6147
2023-04-15T07:04:47.912Z,58.5635
2023-04-15T07:05:48.461Z,58.5093
2023-04-15T07:06:49.320Z,58.4589
2023-04-15T07:07:49.995Z,58.4200
2023-04-15T07:08:50.738Z,58.3923
2023-04-15T07:09:51.864Z,58.3635
2023-04-15T07:10:52.794Z,58.3373
2023-04-15T07:11:53.781Z,58.3052
2023-04-15T07:12:54.988Z,58.2640
2023-04-15T07:13:55.807Z,58.2157
2023-04-15T07:14:56.686Z,58.1527
2023-04-15T07:15:56.878Z,58.0814
2023-04-15T07:16:58.165Z,58.0074
2023-04-15T07:17:59.805Z,57.9318
2023-04-15T07:19:01.331Z,57.8599
2023-04-15T07:21:01.471Z,57.7660
2023-04-15T07:22:02.368Z,57.7563
2023-04-15T07:23:03.108Z,57.7507
2023-04-15T07:24:03.241Z,57.7414
2023-04-15T07:25:04.262Z,57.7094
2023-04-15T07:26:04.452Z,57.6740
2023-04-15T07:27:05.525Z,57.6446
2023-04-15T07:28:06.289Z,57.6511
2023-04-15T07:29:07.817Z,57.7150
2023-04-15T07:30:08.177Z,57.8424
2023-04-15T07:31:08.997Z,57.9391
2023-04-15T07:32:10.226Z,57.9810
2023-04-15T07:33:10.237Z,57.9679
2023-04-15T07:34:10.980Z,57.9218
2023-04-15T07:35:12.044Z,57.8710
2023-04-15T07:36:12.873Z,57.8188
2023-04-15T07:37:13.915Z,57.7690
2023-04-15T07:38:14.923Z,57.7197
2023-04-15T07:39:15.713Z,57.6698
2023-04-15T07:40:16.852Z,57.6210
2023-04-15T07:41:17.601Z,57.5797
2023-04-15T07:42:18.306Z,57.5465
2023-04-15T07:43:19.014Z,57.5254
2023-04-15T07:44:20.031Z,57.5227
2023-04-15T07:45:20.703Z,57.5391
2023-04-15T07:46:21.023Z,57.5540
2023-04-15T07:47:21.289Z,57.5816
2023-04-15T07:48:21.322Z,57.6005
2023-04-15T07:49:22.441Z,57.6162
2023-04-15T07:50:23.202Z,57.6233
2023-04-15T07:51:24.343Z,57.6166
2023-04-15T07:52:25.200Z,57.6116
2023-04-15T07:53:25.980Z,57.6153
2023-04-15T07:54:26.831Z,57.6219
2023-04-15T07:55:28.428Z,57.6259
2023-04-15T07:56:29.003Z,57.6212
2023-04-15T07:57:29.820Z,57.6227
2023-04-15T07:58:30.876Z,57.6396
2023-04-15T07:59:31.884Z,57.6536
2023-04-15T08:00:33.093Z,57.6577
2023-04-15T08:01:33.960Z,57.6572
2023-04-15T08:02:34.269Z,57.6506
2023-04-15T08:03:34.623Z,57.6443
2023-04-15T08:04:35.886Z,57.6210
2023-04-15T08:05:36.694Z,57.5857
2023-04-15T08:06:37.517Z,57.5510
2023-04-15T08:07:38.124Z,57.5251
2023-04-15T08:08:38.920Z,57.5034
2023-04-15T08:09:39.787Z,57.4789
2023-04-15T08:10:40.430Z,57.4460
2023-04-15T08:11:41.440Z,57.4056
2023-04-15T08:12:42.824Z,57.3674
2023-04-15T08:13:45.027Z,57.3371
2023-04-15T08:14:45.445Z,57.2628
2023-04-15T08:15:46.545Z,57.1754
2023-04-15T08:16:47.818Z,57.0919
2023-04-15T08:17:49.085Z,57.0069
2023-04-15T08:18:50.056Z,56.9138
2023-04-15T08:19:51.225Z,56.8216
2023-04-15T08:20:51.872Z,56.7273
2023-04-15T08:21:52.728Z,56.6305
2023-04-15T08:22:53.901Z,56.5443
2023-04-15T08:23:54.886Z,56.4457
2023-04-15T08:24:55.782Z,56.3522
2023-04-15T08:25:56.059Z,56.2736
2023-04-15T08:26:56.951Z,56.2067
2023-04-15T08:27:57.862Z,56.1341
2023-04-15T08:28:58.690Z,56.0781
2023-04-15T08:29:59.023Z,56.0320
2023-04-15T08:30:59.551Z,55.9782
2023-04-15T08:32:00.785Z,55.9221
2023-04-15T08:33:01.672Z,55.8580
2023-04-15T08:34:02.548Z,55.7954
2023-04-15T08:35:03.344Z,55.7371
2023-04-15T08:36:04.192Z,55.6795
2023-04-15T08:37:05.096Z,55.6284
2023-04-15T08:38:06.018Z,55.5842
2023-04-15T08:39:06.830Z,55.5429
2023-04-15T08:40:07.670Z,55.5188
2023-04-15T08:41:08.426Z,55.5119
2023-04-15T08:42:08.511Z,55.5164
2023-04-15T08:43:09.053Z,55.5375
2023-04-15T08:44:09.550Z,55.5687
2023-04-15T08:45:10.746Z,55.5977
2023-04-15T08:46:11.916Z,55.6258
2023-04-15T08:47:13.086Z,55.6319
2023-04-15T08:48:13.619Z,55.6593
2023-04-15T08:49:14.918Z,55.7034
2023-04-15T08:50:16.090Z,55.7424
2023-04-15T08:52:16.493Z,55.7862
2023-04-15T08:53:17.478Z,55.7896
2023-04-15T08:54:18.295Z,55.7809
2023-04-15T08:55:18.364Z,55.7672
2023-04-15T08:56:18.748Z,55.7455
2023-04-15T08:57:19.206Z,55.7119
2023-04-15T08:58:19.279Z,55.6678
2023-04-15T08:59:20.433Z,55.6178
2023-04-15T09:00:20.830Z,55.5695
2023-04-15T09:01:21.898Z,55.5196
2023-04-15T09:02:23.189Z,55.4710
2023-04-15T09:03:23.894Z,55.4430
2023-04-15T09:04:23.761Z,55.4322
2023-04-15T09:05:24.755Z,55.4306
2023-04-15T09:07:25.652Z,55.4470
2023-04-15T09:08:26.794Z,55.4632
2023-04-15T09:09:27.656Z,55.4942
2023-04-15T09:10:28.707Z,55.5571
2023-04-15T09:11:29.581Z,55.6317
2023-04-15T09:12:30.491Z,55.6922
2023-04-15T09:13:30.734Z,55.7497
2023-04-15T09:14:31.547Z,55.8121
2023-04-15T09:15:32.710Z,55.8816
2023-04-15T09:16:33.919Z,55.9437
2023-04-15T09:17:35.035Z,55.9953
2023-04-15T09:18:35.442Z,56.0238
2023-04-15T09:19:35.392Z,56.0291
2023-04-15T09:20:36.160Z,56.0190
2023-04-15T09:21:37.184Z,56.0024
2023-04-15T09:22:37.474Z,55.9883
2023-04-15T09:24:38.031Z,55.9289
2023-04-15T09:25:38.088Z,55.8919
2023-04-15T09:26:38.955Z,55.8622
2023-04-15T09:27:39.443Z,55.8366
2023-04-15T09:28:39.647Z,55.8251
2023-04-15T09:29:40.781Z,55.8205
2023-04-15T09:30:41.649Z,55.8273
2023-04-15T09:31:41.846Z,55.8250
2023-04-15T09:32:43.293Z,55.8278
2023-04-15T09:34:43.144Z,55.8611
2023-04-15T09:35:44.028Z,55.9989
2023-04-15T09:36:44.827Z,56.1590
2023-04-15T09:37:45.616Z,56.3325
2023-04-15T09:38:46.340Z,56.4340
2023-04-15T09:39:47.151Z,56.5421
2023-04-15T09:40:48.240Z,56.6253
2023-04-15T09:41:49.669Z,56.6218
2023-04-15T09:42:52.441Z,56.5853
2023-04-15T09:43:53.540Z,56.5445
2023-04-15T09:44:53.579Z,56.5133
2023-04-15T09:45:54.533Z,56.5136
2023-04-15T09:46:55.254Z,56.5598
2023-04-15T09:47:57.084Z,56.6139
2023-04-15T09:48:56.909Z,56.6532
2023-04-15T09:49:57.867Z,56.6636
2023-04-15T09:50:57.798Z,56.6583
2023-04-15T09:52:04.469Z,56.6433
2023-04-15T09:52:58.731Z,56.6200
2023-04-15T09:53:59.687Z,56.5798
2023-04-15T09:54:59.627Z,56.5708
2023-04-15T09:56:00.152Z,56.5815
2023-04-15T09:57:01.008Z,56.5961
2023-04-15T09:58:01.758Z,56.5880
2023-04-15T09:59:02.782Z,56.5684
2023-04-15T10:00:03.726Z,56.5399
2023-04-15T10:01:04.905Z,56.5055
2023-04-15T10:02:06.061Z,56.4651
2023-04-15T10:03:06.921Z,56.4281
2023-04-15T10:04:07.459Z,56.4116
2023-04-15T10:05:08.219Z,56.4117
2023-04-15T10:06:08.355Z,56.4490
2023-04-15T10:07:09.479Z,56.5778
2023-04-15T10:08:10.573Z,56.6506
2023-04-15T10:09:11.736Z,56.6676
2023-04-15T10:10:12.752Z,56.6817
2023-04-15T10:11:13.890Z,56.7114
2023-04-15T10:12:15.036Z,56.7678
2023-04-15T10:13:15.834Z,56.8479
2023-04-15T10:14:16.859Z,56.9589
2023-04-15T10:15:17.898Z,57.0561
2023-04-15T10:16:18.695Z,57.1578
2023-04-15T10:17:19.823Z,57.2235
2023-04-15T10:18:20.864Z,57.2724
2023-04-15T10:19:21.720Z,57.3280
2023-04-15T10:20:22.668Z,57.3887
2023-04-15T10:21:23.327Z,57.4509
2023-04-15T10:22:24.433Z,57.5176
2023-04-15T10:23:24.695Z,57.6388
2023-04-15T10:24:25.366Z,57.8778
2023-04-15T10:25:26.571Z,58.1065
2023-04-15T10:26:27.151Z,58.2670
2023-04-15T10:27:27.935Z,58.4796
2023-04-15T10:28:28.700Z,58.7193
2023-04-15T10:29:29.958Z,58.8228
2023-04-15T10:30:31.177Z,58.8709
2023-04-15T10:31:32.468Z,58.8936
2023-04-15T10:32:33.428Z,58.9021
2023-04-15T10:33:34.501Z,58.9158
2023-04-15T10:34:34.714Z,58.9390
2023-04-15T10:35:35.332Z,58.9288
2023-04-15T10:36:36.394Z,58.9014
2023-04-15T10:37:37.060Z,58.8865
2023-04-15T10:38:37.874Z,58.8829
2023-04-15T10:39:39.008Z,58.8755
2023-04-15T10:40:39.585Z,58.8475
2023-04-15T10:41:40.264Z,58.8014
2023-04-15T10:43:51.208Z,58.6086
2023-04-15T10:44:51.408Z,58.5322
2023-04-15T10:45:52.562Z,58.4268
2023-04-15T10:46:53.108Z,58.3168
2023-04-15T10:47:54.452Z,58.1911
2023-04-15T10:48:55.220Z,58.0589
2023-04-15T10:49:56.111Z,57.9803
2023-04-15T10:50:57.069Z,57.8871
2023-04-15T10:51:57.679Z,57.8148
2023-04-15T10:52:57.689Z,57.7626
2023-04-15T10:53:58.787Z,57.7533
2023-04-15T10:54:59.511Z,57.7064
2023-04-15T10:56:00.300Z,57.6455
2023-04-15T10:57:00.929Z,57.6520
2023-04-15T10:58:01.576Z,57.6728
2023-04-15T10:59:02.532Z,57.7277
2023-04-15T11:00:03.764Z,57.8720
2023-04-15T11:01:04.532Z,57.9965
2023-04-15T11:02:04.717Z,58.1417
2023-04-15T11:03:05.356Z,58.3217
2023-04-15T11:04:07.818Z,58.3716
2023-04-15T11:05:08.831Z,58.3891
2023-04-15T11:06:08.726Z,58.3936
2023-04-15T11:07:09.750Z,58.3728
2023-04-15T11:08:10.801Z,58.3714
2023-04-15T11:09:12.474Z,58.3735
2023-04-15T11:11:13.340Z,58.3464
2023-04-15T11:12:13.789Z,58.2877
2023-04-15T11:13:20.036Z,58.2674
2023-04-15T11:14:20.805Z,58.2384
2023-04-15T11:15:21.774Z,58.1889
2023-04-15T11:16:22.910Z,58.1333
2023-04-15T11:17:23.316Z,58.0769
2023-04-15T11:18:23.578Z,58.0493
2023-04-15T11:19:24.694Z,58.0523
2023-04-15T11:20:24.590Z,58.0578
2023-04-15T11:21:41.620Z,58.0662
2023-04-15T11:22:42.788Z,58.1200
2023-04-15T11:23:43.011Z,58.1476
2023-04-15T11:24:43.349Z,58.2039
2023-04-15T11:25:44.252Z,58.2973
2023-04-15T11:26:44.082Z,58.4023
2023-04-15T11:27:44.848Z,58.5159
2023-04-15T11:28:45.611Z,58.6699
2023-04-15T11:29:46.644Z,58.8489
2023-04-15T11:30:47.369Z,58.9869
2023-04-15T11:31:48.384Z,59.1124
2023-04-15T11:32:49.644Z,59.2425
2023-04-15T11:33:50.863Z,59.3665
2023-04-15T11:34:51.662Z,59.4610
2023-04-15T11:35:52.245Z,59.5599
2023-04-15T11:36:53.471Z,59.6738
2023-04-15T11:37:54.212Z,59.7465
2023-04-15T11:38:55.043Z,59.7868
2023-04-15T11:39:55.903Z,59.7764
2023-04-15T11:40:57.270Z,59.7288
2023-04-15T11:41:58.022Z,59.6569
2023-04-15T11:42:58.228Z,59.5736
2023-04-15T11:43:59.296Z,59.4734
2023-04-15T11:44:59.871Z,59.4035
2023-04-15T11:46:01.010Z,59.3442
2023-04-15T11:47:02.044Z,59.3249
2023-04-15T11:48:03.089Z,59.3581
2023-04-15T11:49:03.705Z,59.3993
2023-04-15T11:50:04.556Z,59.4504
2023-04-15T11:51:05.221Z,59.4853
2023-04-15T11:52:05.854Z,59.5877
2023-04-15T11:53:08.384Z,59.6504
2023-04-15T11:54:06.711Z,59.6848
2023-04-15T11:55:07.277Z,59.6881
2023-04-15T11:56:07.914Z,59.6742
2023-04-15T11:57:08.703Z,59.6479
2023-04-15T11:58:09.493Z,59.6086
2023-04-15T11:59:10.184Z,59.5619
2023-04-15T12:00:10.933Z,59.5408
2023-04-15T12:01:11.431Z,59.4770
2023-04-15T12:02:12.218Z,59.4163
2023-04-15T12:03:13.584Z,59.3534
2023-04-15T12:04:14.466Z,59.2896
2023-04-15T12:05:15.785Z,59.1782
2023-04-15T12:06:16.805Z,59.0139
2023-04-15T12:07:17.611Z,58.8062
2023-04-15T12:08:18.202Z,58.5527
2023-04-15T12:09:18.882Z,58.2816
2023-04-15T12:10:19.966Z,58.0304
2023-04-15T12:11:20.656Z,57.7469
2023-04-15T12:12:20.889Z,57.4411
2023-04-15T12:13:21.079Z,57.1699
2023-04-15T12:14:21.378Z,56.9150
2023-04-15T12:15:22.150Z,56.6933
2023-04-15T12:16:22.941Z,56.5292
2023-04-15T12:17:23.347Z,56.4200
2023-04-15T12:18:23.736Z,56.3337
2023-04-15T12:19:24.095Z,56.2280
2023-04-15T12:20:25.312Z,56.1167
2023-04-15T12:21:25.430Z,56.0243
2023-04-15T12:22:26.042Z,55.9485
2023-04-15T12:23:26.105Z,55.8528
2023-04-15T12:24:26.851Z,55.6774